<?xml version="1.0" encoding="UTF-8" standalone="no" ?>
<gpx xmlns="http://www.topografix.com/GPX/1/1" xmlns:xsi="http://www.w3.org/2001/XMLSchema-instance" xsi:schemaLocation="http://www.topografix.com/GPX/1/1 http://www.topografix.com/GPX/1/1/gpx.xsd" version="1.1" creator="VisuGPX - https://www.visugpx.com">
  <metadata>
    <name>Balade du Nez de Napoléon</name>
    <desc><![CDATA[Au départ de la Brasserie de la Ferme à Bilstain, prenez à gauche vers le bois.
À la stèle de Jésus, prenez à droite et continuez vers le bois. 
À l?entrée du bois, continuez tout droit sur le chemin principal et descendez. Au tournant prenez à gauche. Le chemin sera vallonné.
Vous arrivez à la cabane du chasseur, continuez le petit chemin principal jusqu?à un croisement.
Au croisement, continuez à droite. Ça descend fort. Restez sur le côté gauche.
En bas de la forte descente, remontez le chemin sur votre droite. Ne descendez pas vers la grande route !
Continuer le long du petit chemin étroit tout en faisant attention.
Vous arrivez au Nez de Napoléon sur votre droite, les plus casse-cous pourront entreprendre la grimpette pour atteindre le sommet.
Redescendez le chemin jusqu?à un nouveau croisement
Au croisement, prenez à gauche, traversez la rigole. Ne montez pas à droite.
Continuez toujours tout droit, le long de l?eau et suivez le chemin principal jusqu?à atteindre le village de Bilstain.
Arrivé aux maisons, prenez à droite et redescendez vers le village. Ne prenez pas l?échalier. 
À la fromagerie Tri Dieu, descendez tout droit.
Au croisement en bas, remontez à droite.
Tournez à droite pour arriver à la Brasserie de la Ferme]]></desc>
  </metadata>
  <wpt lat="50.62124" lon="5.92148">
    <ele>264</ele>
    <name><![CDATA[Départ]]></name>
  </wpt>
  <wpt lat="50.61737" lon="5.91207">
    <ele>226</ele>
    <name><![CDATA[Le Nez de Napoléon]]></name>
  </wpt>
  <wpt lat="50.62034" lon="5.90593">
    <ele>228</ele>
    <name><![CDATA[Le long du Ru]]></name>
  </wpt>
  <wpt lat="50.62116" lon="5.9214">
    <ele>264</ele>
    <name><![CDATA[Arrivée]]></name>
  </wpt>
  <trk>
    <name><![CDATA[Balade du Nez de Napoléon]]></name>
    <trkseg>
      <trkpt lat="50.62124" lon="5.92148">
        <ele>264</ele>
        <time>2019-04-16T11:02:31+02:00</time>
      </trkpt>
      <trkpt lat="50.621" lon="5.92095">
        <ele>263</ele>
        <time>2019-04-16T11:02:36+02:00</time>
      </trkpt>
      <trkpt lat="50.62087" lon="5.92056">
        <ele>262</ele>
        <time>2019-04-16T11:02:41+02:00</time>
      </trkpt>
      <trkpt lat="50.62079" lon="5.92023">
        <ele>262</ele>
        <time>2019-04-16T11:02:46+02:00</time>
      </trkpt>
      <trkpt lat="50.62066" lon="5.92008">
        <ele>262</ele>
        <time>2019-04-16T11:02:51+02:00</time>
      </trkpt>
      <trkpt lat="50.61981" lon="5.92069">
        <ele>269</ele>
        <time>2019-04-16T11:02:56+02:00</time>
      </trkpt>
      <trkpt lat="50.61963" lon="5.9197">
        <ele>269</ele>
        <time>2019-04-16T11:03:01+02:00</time>
      </trkpt>
      <trkpt lat="50.61953" lon="5.919">
        <ele>270</ele>
        <time>2019-04-16T11:03:06+02:00</time>
      </trkpt>
      <trkpt lat="50.6195" lon="5.91889">
        <ele>270</ele>
        <time>2019-04-16T11:03:11+02:00</time>
      </trkpt>
      <trkpt lat="50.61939" lon="5.91889">
        <ele>271</ele>
        <time>2019-04-16T11:03:16+02:00</time>
      </trkpt>
      <trkpt lat="50.61898" lon="5.91924">
        <ele>273</ele>
        <time>2019-04-16T11:03:21+02:00</time>
      </trkpt>
      <trkpt lat="50.6189" lon="5.91925">
        <ele>273</ele>
        <time>2019-04-16T11:03:26+02:00</time>
      </trkpt>
      <trkpt lat="50.61885" lon="5.91912">
        <ele>274</ele>
        <time>2019-04-16T11:03:31+02:00</time>
      </trkpt>
      <trkpt lat="50.61823" lon="5.91672">
        <ele>283</ele>
        <time>2019-04-16T11:03:36+02:00</time>
      </trkpt>
      <trkpt lat="50.61815" lon="5.91653">
        <ele>284</ele>
        <time>2019-04-16T11:03:41+02:00</time>
      </trkpt>
      <trkpt lat="50.61799" lon="5.91613">
        <ele>285</ele>
        <time>2019-04-16T11:03:46+02:00</time>
      </trkpt>
      <trkpt lat="50.6179" lon="5.91612">
        <ele>285</ele>
        <time>2019-04-16T11:03:51+02:00</time>
      </trkpt>
      <trkpt lat="50.61743" lon="5.91508">
        <ele>285</ele>
        <time>2019-04-16T11:03:56+02:00</time>
      </trkpt>
      <trkpt lat="50.61757" lon="5.91423">
        <ele>279</ele>
        <time>2019-04-16T11:04:01+02:00</time>
      </trkpt>
      <trkpt lat="50.61678" lon="5.91411">
        <ele>268</ele>
        <time>2019-04-16T11:04:06+02:00</time>
      </trkpt>
      <trkpt lat="50.61618" lon="5.91455">
        <ele>271</ele>
        <time>2019-04-16T11:04:11+02:00</time>
      </trkpt>
      <trkpt lat="50.6161" lon="5.91454">
        <ele>271</ele>
        <time>2019-04-16T11:04:16+02:00</time>
      </trkpt>
      <trkpt lat="50.61584" lon="5.91448">
        <ele>269</ele>
        <time>2019-04-16T11:04:21+02:00</time>
      </trkpt>
      <trkpt lat="50.61531" lon="5.91492">
        <ele>274</ele>
        <time>2019-04-16T11:04:26+02:00</time>
      </trkpt>
      <trkpt lat="50.61524" lon="5.91513">
        <ele>275</ele>
        <time>2019-04-16T11:04:31+02:00</time>
      </trkpt>
      <trkpt lat="50.61516" lon="5.91584">
        <ele>278</ele>
        <time>2019-04-16T11:04:36+02:00</time>
      </trkpt>
      <trkpt lat="50.61514" lon="5.91611">
        <ele>279</ele>
        <time>2019-04-16T11:04:41+02:00</time>
      </trkpt>
      <trkpt lat="50.61519" lon="5.91676">
        <ele>282</ele>
        <time>2019-04-16T11:04:46+02:00</time>
      </trkpt>
      <trkpt lat="50.61513" lon="5.91695">
        <ele>282</ele>
        <time>2019-04-16T11:04:51+02:00</time>
      </trkpt>
      <trkpt lat="50.615" lon="5.91716">
        <ele>281</ele>
        <time>2019-04-16T11:04:56+02:00</time>
      </trkpt>
      <trkpt lat="50.61476" lon="5.91716">
        <ele>274</ele>
        <time>2019-04-16T11:05:01+02:00</time>
      </trkpt>
      <trkpt lat="50.61466" lon="5.91741">
        <ele>271</ele>
        <time>2019-04-16T11:05:06+02:00</time>
      </trkpt>
      <trkpt lat="50.61463" lon="5.91758">
        <ele>270</ele>
        <time>2019-04-16T11:05:11+02:00</time>
      </trkpt>
      <trkpt lat="50.6146" lon="5.91777">
        <ele>268</ele>
        <time>2019-04-16T11:05:16+02:00</time>
      </trkpt>
      <trkpt lat="50.61458" lon="5.91815">
        <ele>265</ele>
        <time>2019-04-16T11:05:21+02:00</time>
      </trkpt>
      <trkpt lat="50.6146" lon="5.91832">
        <ele>264</ele>
        <time>2019-04-16T11:05:26+02:00</time>
      </trkpt>
      <trkpt lat="50.61462" lon="5.91852">
        <ele>264</ele>
        <time>2019-04-16T11:05:31+02:00</time>
      </trkpt>
      <trkpt lat="50.61454" lon="5.9187">
        <ele>262</ele>
        <time>2019-04-16T11:05:36+02:00</time>
      </trkpt>
      <trkpt lat="50.61454" lon="5.91897">
        <ele>261</ele>
        <time>2019-04-16T11:05:41+02:00</time>
      </trkpt>
      <trkpt lat="50.61448" lon="5.91928">
        <ele>259</ele>
        <time>2019-04-16T11:05:46+02:00</time>
      </trkpt>
      <trkpt lat="50.61448" lon="5.92011">
        <ele>258</ele>
        <time>2019-04-16T11:05:51+02:00</time>
      </trkpt>
      <trkpt lat="50.61445" lon="5.92037">
        <ele>256</ele>
        <time>2019-04-16T11:05:56+02:00</time>
      </trkpt>
      <trkpt lat="50.61452" lon="5.92076">
        <ele>255</ele>
        <time>2019-04-16T11:06:01+02:00</time>
      </trkpt>
      <trkpt lat="50.61429" lon="5.9207">
        <ele>253</ele>
        <time>2019-04-16T11:06:06+02:00</time>
      </trkpt>
      <trkpt lat="50.61418" lon="5.92059">
        <ele>253</ele>
        <time>2019-04-16T11:06:11+02:00</time>
      </trkpt>
      <trkpt lat="50.61377" lon="5.92037">
        <ele>243</ele>
        <time>2019-04-16T11:06:16+02:00</time>
      </trkpt>
      <trkpt lat="50.61367" lon="5.92013">
        <ele>243</ele>
        <time>2019-04-16T11:06:21+02:00</time>
      </trkpt>
      <trkpt lat="50.61352" lon="5.91974">
        <ele>240</ele>
        <time>2019-04-16T11:06:26+02:00</time>
      </trkpt>
      <trkpt lat="50.61337" lon="5.91936">
        <ele>235</ele>
        <time>2019-04-16T11:06:31+02:00</time>
      </trkpt>
      <trkpt lat="50.61331" lon="5.91907">
        <ele>233</ele>
        <time>2019-04-16T11:06:36+02:00</time>
      </trkpt>
      <trkpt lat="50.61326" lon="5.91873">
        <ele>228</ele>
        <time>2019-04-16T11:06:41+02:00</time>
      </trkpt>
      <trkpt lat="50.61317" lon="5.91842">
        <ele>224</ele>
        <time>2019-04-16T11:06:46+02:00</time>
      </trkpt>
      <trkpt lat="50.61328" lon="5.91852">
        <ele>227</ele>
        <time>2019-04-16T11:06:51+02:00</time>
      </trkpt>
      <trkpt lat="50.61332" lon="5.91833">
        <ele>227</ele>
        <time>2019-04-16T11:06:56+02:00</time>
      </trkpt>
      <trkpt lat="50.61332" lon="5.91818">
        <ele>227</ele>
        <time>2019-04-16T11:07:01+02:00</time>
      </trkpt>
      <trkpt lat="50.61321" lon="5.91776">
        <ele>223</ele>
        <time>2019-04-16T11:07:06+02:00</time>
      </trkpt>
      <trkpt lat="50.61332" lon="5.91742">
        <ele>224</ele>
        <time>2019-04-16T11:07:11+02:00</time>
      </trkpt>
      <trkpt lat="50.61364" lon="5.91661">
        <ele>229</ele>
        <time>2019-04-16T11:07:16+02:00</time>
      </trkpt>
      <trkpt lat="50.6138" lon="5.91621">
        <ele>231</ele>
        <time>2019-04-16T11:07:21+02:00</time>
      </trkpt>
      <trkpt lat="50.6139" lon="5.91609">
        <ele>234</ele>
        <time>2019-04-16T11:07:26+02:00</time>
      </trkpt>
      <trkpt lat="50.61397" lon="5.91582">
        <ele>233</ele>
        <time>2019-04-16T11:07:31+02:00</time>
      </trkpt>
      <trkpt lat="50.61406" lon="5.9157">
        <ele>236</ele>
        <time>2019-04-16T11:07:36+02:00</time>
      </trkpt>
      <trkpt lat="50.61414" lon="5.91553">
        <ele>238</ele>
        <time>2019-04-16T11:07:41+02:00</time>
      </trkpt>
      <trkpt lat="50.61416" lon="5.91522">
        <ele>234</ele>
        <time>2019-04-16T11:07:46+02:00</time>
      </trkpt>
      <trkpt lat="50.6142" lon="5.91497">
        <ele>232</ele>
        <time>2019-04-16T11:07:51+02:00</time>
      </trkpt>
      <trkpt lat="50.61427" lon="5.91472">
        <ele>232</ele>
        <time>2019-04-16T11:07:56+02:00</time>
      </trkpt>
      <trkpt lat="50.61442" lon="5.91422">
        <ele>231</ele>
        <time>2019-04-16T11:08:01+02:00</time>
      </trkpt>
      <trkpt lat="50.61457" lon="5.91366">
        <ele>224</ele>
        <time>2019-04-16T11:08:06+02:00</time>
      </trkpt>
      <trkpt lat="50.61469" lon="5.91347">
        <ele>224</ele>
        <time>2019-04-16T11:08:11+02:00</time>
      </trkpt>
      <trkpt lat="50.61471" lon="5.91325">
        <ele>219</ele>
        <time>2019-04-16T11:08:16+02:00</time>
      </trkpt>
      <trkpt lat="50.61485" lon="5.91319">
        <ele>222</ele>
        <time>2019-04-16T11:08:21+02:00</time>
      </trkpt>
      <trkpt lat="50.61519" lon="5.9136">
        <ele>242</ele>
        <time>2019-04-16T11:08:26+02:00</time>
      </trkpt>
      <trkpt lat="50.61533" lon="5.91371">
        <ele>247</ele>
        <time>2019-04-16T11:08:31+02:00</time>
      </trkpt>
      <trkpt lat="50.61562" lon="5.91354">
        <ele>245</ele>
        <time>2019-04-16T11:08:36+02:00</time>
      </trkpt>
      <trkpt lat="50.61578" lon="5.91343">
        <ele>242</ele>
        <time>2019-04-16T11:08:41+02:00</time>
      </trkpt>
      <trkpt lat="50.61595" lon="5.91352">
        <ele>247</ele>
        <time>2019-04-16T11:08:46+02:00</time>
      </trkpt>
      <trkpt lat="50.6161" lon="5.91346">
        <ele>246</ele>
        <time>2019-04-16T11:08:51+02:00</time>
      </trkpt>
      <trkpt lat="50.61625" lon="5.91337">
        <ele>245</ele>
        <time>2019-04-16T11:08:56+02:00</time>
      </trkpt>
      <trkpt lat="50.61639" lon="5.91338">
        <ele>247</ele>
        <time>2019-04-16T11:09:01+02:00</time>
      </trkpt>
      <trkpt lat="50.61642" lon="5.91325">
        <ele>244</ele>
        <time>2019-04-16T11:09:06+02:00</time>
      </trkpt>
      <trkpt lat="50.61652" lon="5.91295">
        <ele>235</ele>
        <time>2019-04-16T11:09:11+02:00</time>
      </trkpt>
      <trkpt lat="50.61661" lon="5.91291">
        <ele>235</ele>
        <time>2019-04-16T11:09:16+02:00</time>
      </trkpt>
      <trkpt lat="50.61681" lon="5.91306">
        <ele>243</ele>
        <time>2019-04-16T11:09:21+02:00</time>
      </trkpt>
      <trkpt lat="50.61702" lon="5.91291">
        <ele>243</ele>
        <time>2019-04-16T11:09:26+02:00</time>
      </trkpt>
      <trkpt lat="50.61718" lon="5.91255">
        <ele>236</ele>
        <time>2019-04-16T11:09:31+02:00</time>
      </trkpt>
      <trkpt lat="50.61737" lon="5.91207">
        <ele>226</ele>
        <time>2019-04-16T11:09:36+02:00</time>
      </trkpt>
      <trkpt lat="50.61746" lon="5.91194">
        <ele>223</ele>
        <time>2019-04-16T11:09:41+02:00</time>
      </trkpt>
      <trkpt lat="50.61777" lon="5.91194">
        <ele>227</ele>
        <time>2019-04-16T11:09:46+02:00</time>
      </trkpt>
      <trkpt lat="50.61795" lon="5.91196">
        <ele>229</ele>
        <time>2019-04-16T11:09:51+02:00</time>
      </trkpt>
      <trkpt lat="50.61812" lon="5.91188">
        <ele>229</ele>
        <time>2019-04-16T11:09:56+02:00</time>
      </trkpt>
      <trkpt lat="50.6184" lon="5.91176">
        <ele>229</ele>
        <time>2019-04-16T11:10:01+02:00</time>
      </trkpt>
      <trkpt lat="50.61866" lon="5.91161">
        <ele>228</ele>
        <time>2019-04-16T11:10:06+02:00</time>
      </trkpt>
      <trkpt lat="50.61872" lon="5.91135">
        <ele>225</ele>
        <time>2019-04-16T11:10:11+02:00</time>
      </trkpt>
      <trkpt lat="50.61877" lon="5.91106">
        <ele>220</ele>
        <time>2019-04-16T11:10:16+02:00</time>
      </trkpt>
      <trkpt lat="50.61878" lon="5.91055">
        <ele>216</ele>
        <time>2019-04-16T11:10:21+02:00</time>
      </trkpt>
      <trkpt lat="50.61879" lon="5.91026">
        <ele>216</ele>
        <time>2019-04-16T11:10:26+02:00</time>
      </trkpt>
      <trkpt lat="50.61867" lon="5.91002">
        <ele>214</ele>
        <time>2019-04-16T11:10:31+02:00</time>
      </trkpt>
      <trkpt lat="50.61863" lon="5.90966">
        <ele>216</ele>
        <time>2019-04-16T11:10:36+02:00</time>
      </trkpt>
      <trkpt lat="50.61867" lon="5.90942">
        <ele>218</ele>
        <time>2019-04-16T11:10:41+02:00</time>
      </trkpt>
      <trkpt lat="50.61884" lon="5.90917">
        <ele>221</ele>
        <time>2019-04-16T11:10:46+02:00</time>
      </trkpt>
      <trkpt lat="50.61919" lon="5.90866">
        <ele>222</ele>
        <time>2019-04-16T11:10:51+02:00</time>
      </trkpt>
      <trkpt lat="50.6194" lon="5.90815">
        <ele>226</ele>
        <time>2019-04-16T11:10:56+02:00</time>
      </trkpt>
      <trkpt lat="50.61981" lon="5.90733">
        <ele>228</ele>
        <time>2019-04-16T11:11:01+02:00</time>
      </trkpt>
      <trkpt lat="50.62002" lon="5.90673">
        <ele>225</ele>
        <time>2019-04-16T11:11:06+02:00</time>
      </trkpt>
      <trkpt lat="50.62021" lon="5.90613">
        <ele>229</ele>
        <time>2019-04-16T11:11:11+02:00</time>
      </trkpt>
      <trkpt lat="50.62034" lon="5.90593">
        <ele>228</ele>
        <time>2019-04-16T11:11:16+02:00</time>
      </trkpt>
      <trkpt lat="50.62053" lon="5.90572">
        <ele>228</ele>
        <time>2019-04-16T11:11:21+02:00</time>
      </trkpt>
      <trkpt lat="50.6207" lon="5.90557">
        <ele>227</ele>
        <time>2019-04-16T11:11:26+02:00</time>
      </trkpt>
      <trkpt lat="50.62105" lon="5.90551">
        <ele>226</ele>
        <time>2019-04-16T11:11:31+02:00</time>
      </trkpt>
      <trkpt lat="50.62147" lon="5.90548">
        <ele>228</ele>
        <time>2019-04-16T11:11:36+02:00</time>
      </trkpt>
      <trkpt lat="50.62177" lon="5.90545">
        <ele>229</ele>
        <time>2019-04-16T11:11:41+02:00</time>
      </trkpt>
      <trkpt lat="50.62201" lon="5.90538">
        <ele>228</ele>
        <time>2019-04-16T11:11:46+02:00</time>
      </trkpt>
      <trkpt lat="50.62281" lon="5.90545">
        <ele>231</ele>
        <time>2019-04-16T11:11:51+02:00</time>
      </trkpt>
      <trkpt lat="50.62299" lon="5.90548">
        <ele>233</ele>
        <time>2019-04-16T11:11:56+02:00</time>
      </trkpt>
      <trkpt lat="50.6231" lon="5.90558">
        <ele>233</ele>
        <time>2019-04-16T11:12:01+02:00</time>
      </trkpt>
      <trkpt lat="50.6233" lon="5.90607">
        <ele>233</ele>
        <time>2019-04-16T11:12:06+02:00</time>
      </trkpt>
      <trkpt lat="50.62353" lon="5.90654">
        <ele>234</ele>
        <time>2019-04-16T11:12:11+02:00</time>
      </trkpt>
      <trkpt lat="50.62349" lon="5.90682">
        <ele>236</ele>
        <time>2019-04-16T11:12:16+02:00</time>
      </trkpt>
      <trkpt lat="50.6235" lon="5.90758">
        <ele>241</ele>
        <time>2019-04-16T11:12:21+02:00</time>
      </trkpt>
      <trkpt lat="50.62358" lon="5.90791">
        <ele>242</ele>
        <time>2019-04-16T11:12:26+02:00</time>
      </trkpt>
      <trkpt lat="50.62373" lon="5.90825">
        <ele>242</ele>
        <time>2019-04-16T11:12:31+02:00</time>
      </trkpt>
      <trkpt lat="50.62392" lon="5.9098">
        <ele>254</ele>
        <time>2019-04-16T11:12:36+02:00</time>
      </trkpt>
      <trkpt lat="50.62401" lon="5.90984">
        <ele>254</ele>
        <time>2019-04-16T11:12:41+02:00</time>
      </trkpt>
      <trkpt lat="50.62424" lon="5.90999">
        <ele>254</ele>
        <time>2019-04-16T11:12:46+02:00</time>
      </trkpt>
      <trkpt lat="50.62441" lon="5.91053">
        <ele>256</ele>
        <time>2019-04-16T11:12:51+02:00</time>
      </trkpt>
      <trkpt lat="50.62456" lon="5.9108">
        <ele>257</ele>
        <time>2019-04-16T11:12:56+02:00</time>
      </trkpt>
      <trkpt lat="50.62469" lon="5.91123">
        <ele>259</ele>
        <time>2019-04-16T11:13:01+02:00</time>
      </trkpt>
      <trkpt lat="50.62518" lon="5.91181">
        <ele>261</ele>
        <time>2019-04-16T11:13:06+02:00</time>
      </trkpt>
      <trkpt lat="50.62533" lon="5.91218">
        <ele>263</ele>
        <time>2019-04-16T11:13:11+02:00</time>
      </trkpt>
      <trkpt lat="50.62555" lon="5.9126">
        <ele>265</ele>
        <time>2019-04-16T11:13:16+02:00</time>
      </trkpt>
      <trkpt lat="50.62667" lon="5.9156">
        <ele>273</ele>
        <time>2019-04-16T11:13:21+02:00</time>
      </trkpt>
      <trkpt lat="50.62553" lon="5.91698">
        <ele>274</ele>
        <time>2019-04-16T11:13:26+02:00</time>
      </trkpt>
      <trkpt lat="50.62496" lon="5.91787">
        <ele>274</ele>
        <time>2019-04-16T11:13:31+02:00</time>
      </trkpt>
      <trkpt lat="50.62473" lon="5.91793">
        <ele>274</ele>
        <time>2019-04-16T11:13:36+02:00</time>
      </trkpt>
      <trkpt lat="50.6242" lon="5.91838">
        <ele>274</ele>
        <time>2019-04-16T11:13:41+02:00</time>
      </trkpt>
      <trkpt lat="50.62397" lon="5.91875">
        <ele>272</ele>
        <time>2019-04-16T11:13:46+02:00</time>
      </trkpt>
      <trkpt lat="50.62388" lon="5.91895">
        <ele>270</ele>
        <time>2019-04-16T11:13:51+02:00</time>
      </trkpt>
      <trkpt lat="50.62342" lon="5.91913">
        <ele>265</ele>
        <time>2019-04-16T11:13:56+02:00</time>
      </trkpt>
      <trkpt lat="50.62322" lon="5.9191">
        <ele>263</ele>
        <time>2019-04-16T11:14:01+02:00</time>
      </trkpt>
      <trkpt lat="50.623" lon="5.91894">
        <ele>260</ele>
        <time>2019-04-16T11:14:06+02:00</time>
      </trkpt>
      <trkpt lat="50.62279" lon="5.91868">
        <ele>258</ele>
        <time>2019-04-16T11:14:11+02:00</time>
      </trkpt>
      <trkpt lat="50.62267" lon="5.91875">
        <ele>256</ele>
        <time>2019-04-16T11:14:16+02:00</time>
      </trkpt>
      <trkpt lat="50.62261" lon="5.91893">
        <ele>255</ele>
        <time>2019-04-16T11:14:21+02:00</time>
      </trkpt>
      <trkpt lat="50.6226" lon="5.91955">
        <ele>256</ele>
        <time>2019-04-16T11:14:26+02:00</time>
      </trkpt>
      <trkpt lat="50.62251" lon="5.91993">
        <ele>256</ele>
        <time>2019-04-16T11:14:31+02:00</time>
      </trkpt>
      <trkpt lat="50.62209" lon="5.92025">
        <ele>258</ele>
        <time>2019-04-16T11:14:36+02:00</time>
      </trkpt>
      <trkpt lat="50.62207" lon="5.9205">
        <ele>259</ele>
        <time>2019-04-16T11:14:41+02:00</time>
      </trkpt>
      <trkpt lat="50.62209" lon="5.92112">
        <ele>260</ele>
        <time>2019-04-16T11:14:46+02:00</time>
      </trkpt>
      <trkpt lat="50.62196" lon="5.92143">
        <ele>261</ele>
        <time>2019-04-16T11:14:51+02:00</time>
      </trkpt>
      <trkpt lat="50.62158" lon="5.92218">
        <ele>263</ele>
        <time>2019-04-16T11:14:56+02:00</time>
      </trkpt>
      <trkpt lat="50.62116" lon="5.9214">
        <ele>264</ele>
        <time>2019-04-16T11:15:01+02:00</time>
      </trkpt>
    </trkseg>
  </trk>
</gpx>